Kecel, Hungary
Current Conditions -  °F | °C
As of 12:15 AM on Monday 24 Nov 2014 (Local Time) from LHKE Reporting Station
Haze Haze  
Wind Chill: 41°   Ceiling: 3000
Heat Index: 41°   Visibility: 3mi
Dew Point: 37°   Wind: 2mph
Humidity: 87%   Direction: 40°NE
Pressure: 30.42"   Gusts: NA
Location:  46.53°N, 19.24°E
Report Text: LHKE 232215Z 04002KT 5000 BR OVC030 05/03 Q1030 BECMG 8000 NSW RMK WHT
Loading
Personal Weather Stations






























Interactive Weather Map New forecast layout! Learn more

10-Day Weather Forecast

Advertisements
Track Severe Weather on mobile